sensor_id;sensor_type;location;lat;lon;timestamp;P1;durP1;ratioP1;P2;durP2;ratioP2
5823;SDS011;2938;52.254;12.988;2023-05-07T00:00:05;31.73;;;18.63;;
5823;SDS011;2938;52.254;12.988;2023-05-07T00:02:34;27.90;;;18.23;;
5823;SDS011;2938;52.254;12.988;2023-05-07T00:05:00;22.92;;;17.42;;
5823;SDS011;2938;52.254;12.988;2023-05-07T00:07:25;22.48;;;17.30;;
5823;SDS011;2938;52.254;12.988;2023-05-07T00:09:54;28.45;;;19.75;;
5823;SDS011;2938;52.254;12.988;2023-05-07T00:12:22;26.30;;;18.45;;
5823;SDS011;2938;52.254;12.988;2023-05-07T00:14:47;27.38;;;18.50;;
5823;SDS011;2938;52.254;12.988;2023-05-07T00:17:13;26.67;;;18.27;;
5823;SDS011;2938;52.254;12.988;2023-05-07T00:19:38;26.95;;;19.05;;
5823;SDS011;2938;52.254;12.988;2023-05-07T00:22:07;23.23;;;18.58;;
5823;SDS011;2938;52.254;12.988;2023-05-07T00:24:33;22.90;;;17.73;;
5823;SDS011;2938;52.254;12.988;2023-05-07T00:26:58;22.55;;;18.35;;
5823;SDS011;2938;52.254;12.988;2023-05-07T00:29:26;22.67;;;19.05;;
5823;SDS011;2938;52.254;12.988;2023-05-07T00:31:54;23.13;;;17.55;;
5823;SDS011;2938;52.254;12.988;2023-05-07T00:34:22;24.02;;;18.65;;
5823;SDS011;2938;52.254;12.988;2023-05-07T00:36:47;27.80;;;19.25;;
5823;SDS011;2938;52.254;12.988;2023-05-07T00:39:13;25.45;;;18.55;;
5823;SDS011;2938;52.254;12.988;2023-05-07T00:41:38;22.92;;;18.50;;
5823;SDS011;2938;52.254;12.988;2023-05-07T00:44:03;27.77;;;18.73;;
5823;SDS011;2938;52.254;12.988;2023-05-07T00:46:28;24.30;;;16.77;;
5823;SDS011;2938;52.254;12.988;2023-05-07T00:48:55;29.48;;;19.83;;
5823;SDS011;2938;52.254;12.988;2023-05-07T00:51:21;23.23;;;19.33;;
5823;SDS011;2938;52.254;12.988;2023-05-07T00:53:49;23.35;;;18.55;;
5823;SDS011;2938;52.254;12.988;2023-05-07T00:56:15;26.67;;;20.08;;
5823;SDS011;2938;52.254;12.988;2023-05-07T00:58:41;24.48;;;18.77;;
5823;SDS011;2938;52.254;12.988;2023-05-07T01:01:06;29.90;;;18.80;;
5823;SDS011;2938;52.254;12.988;2023-05-07T01:03:32;29.63;;;18.83;;
5823;SDS011;2938;52.254;12.988;2023-05-07T01:05:57;32.83;;;18.13;;
5823;SDS011;2938;52.254;12.988;2023-05-07T01:08:24;21.30;;;17.85;;
5823;SDS011;2938;52.254;12.988;2023-05-07T01:10:51;24.67;;;18.08;;
5823;SDS011;2938;52.254;12.988;2023-05-07T01:13:17;24.20;;;17.10;;
5823;SDS011;2938;52.254;12.988;2023-05-07T01:15:43;26.50;;;17.17;;
5823;SDS011;2938;52.254;12.988;2023-05-07T01:18:09;19.67;;;16.13;;
5823;SDS011;2938;52.254;12.988;2023-05-07T01:20:38;18.15;;;15.77;;
5823;SDS011;2938;52.254;12.988;2023-05-07T01:23:03;22.02;;;16.10;;
5823;SDS011;2938;52.254;12.988;2023-05-07T01:25:29;21.17;;;14.93;;
5823;SDS011;2938;52.254;12.988;2023-05-07T01:27:55;22.38;;;16.38;;
5823;SDS011;2938;52.254;12.988;2023-05-07T01:30:20;27.85;;;19.42;;
5823;SDS011;2938;52.254;12.988;2023-05-07T01:32:59;21.90;;;16.15;;
5823;SDS011;2938;52.254;12.988;2023-05-07T01:35:29;18.65;;;15.57;;
5823;SDS011;2938;52.254;12.988;2023-05-07T01:37:57;19.25;;;15.95;;
5823;SDS011;2938;52.254;12.988;2023-05-07T01:40:23;17.08;;;13.80;;
5823;SDS011;2938;52.254;12.988;2023-05-07T01:42:49;20.63;;;15.88;;
5823;SDS011;2938;52.254;12.988;2023-05-07T01:45:15;17.58;;;14.90;;
5823;SDS011;2938;52.254;12.988;2023-05-07T01:47:40;20.08;;;15.40;;
5823;SDS011;2938;52.254;12.988;2023-05-07T01:50:06;19.73;;;16.70;;
5823;SDS011;2938;52.254;12.988;2023-05-07T01:52:33;19.73;;;16.08;;
5823;SDS011;2938;52.254;12.988;2023-05-07T01:54:59;26.00;;;15.88;;
5823;SDS011;2938;52.254;12.988;2023-05-07T01:57:24;20.05;;;16.48;;
5823;SDS011;2938;52.254;12.988;2023-05-07T01:59:59;20.75;;;15.35;;
5823;SDS011;2938;52.254;12.988;2023-05-07T02:02:24;22.00;;;16.25;;
5823;SDS011;2938;52.254;12.988;2023-05-07T02:04:50;21.95;;;15.52;;
5823;SDS011;2938;52.254;12.988;2023-05-07T02:07:15;26.67;;;15.30;;
5823;SDS011;2938;52.254;12.988;2023-05-07T02:09:40;20.52;;;15.85;;
5823;SDS011;2938;52.254;12.988;2023-05-07T02:12:07;29.73;;;16.55;;
5823;SDS011;2938;52.254;12.988;2023-05-07T02:14:32;23.73;;;17.33;;
5823;SDS011;2938;52.254;12.988;2023-05-07T02:16:57;23.42;;;16.30;;
5823;SDS011;2938;52.254;12.988;2023-05-07T02:19:23;23.08;;;17.33;;
5823;SDS011;2938;52.254;12.988;2023-05-07T02:21:48;18.55;;;15.50;;
5823;SDS011;2938;52.254;12.988;2023-05-07T02:24:13;18.67;;;15.80;;
5823;SDS011;2938;52.254;12.988;2023-05-07T02:26:42;20.75;;;16.42;;
5823;SDS011;2938;52.254;12.988;2023-05-07T02:29:07;21.42;;;14.93;;
5823;SDS011;2938;52.254;12.988;2023-05-07T02:31:36;19.77;;;14.93;;
5823;SDS011;2938;52.254;12.988;2023-05-07T02:34:01;23.60;;;15.02;;
5823;SDS011;2938;52.254;12.988;2023-05-07T02:36:26;17.13;;;14.50;;
5823;SDS011;2938;52.254;12.988;2023-05-07T02:38:55;19.77;;;15.93;;
5823;SDS011;2938;52.254;12.988;2023-05-07T02:41:20;19.60;;;15.77;;
5823;SDS011;2938;52.254;12.988;2023-05-07T02:43:46;20.55;;;15.57;;
5823;SDS011;2938;52.254;12.988;2023-05-07T02:46:11;18.48;;;15.00;;
5823;SDS011;2938;52.254;12.988;2023-05-07T02:48:37;23.65;;;14.55;;
5823;SDS011;2938;52.254;12.988;2023-05-07T02:51:02;19.70;;;14.73;;
5823;SDS011;2938;52.254;12.988;2023-05-07T02:53:28;16.05;;;13.80;;
5823;SDS011;2938;52.254;12.988;2023-05-07T02:55:58;19.10;;;14.35;;
5823;SDS011;2938;52.254;12.988;2023-05-07T02:58:29;20.92;;;16.30;;
5823;SDS011;2938;52.254;12.988;2023-05-07T03:00:57;19.75;;;15.98;;
5823;SDS011;2938;52.254;12.988;2023-05-07T03:03:23;21.40;;;16.23;;
5823;SDS011;2938;52.254;12.988;2023-05-07T03:05:57;24.23;;;14.35;;
5823;SDS011;2938;52.254;12.988;2023-05-07T03:08:22;25.65;;;15.38;;
5823;SDS011;2938;52.254;12.988;2023-05-07T03:10:48;19.08;;;15.35;;
5823;SDS011;2938;52.254;12.988;2023-05-07T03:13:13;21.15;;;15.07;;
5823;SDS011;2938;52.254;12.988;2023-05-07T03:15:41;21.48;;;15.98;;
5823;SDS011;2938;52.254;12.988;2023-05-07T03:18:07;17.42;;;14.02;;
5823;SDS011;2938;52.254;12.988;2023-05-07T03:20:32;18.63;;;14.90;;
5823;SDS011;2938;52.254;12.988;2023-05-07T03:22:58;21.50;;;16.60;;
5823;SDS011;2938;52.254;12.988;2023-05-07T03:25:23;21.85;;;15.88;;
5823;SDS011;2938;52.254;12.988;2023-05-07T03:27:48;19.63;;;15.27;;
5823;SDS011;2938;52.254;12.988;2023-05-07T03:30:14;21.20;;;16.25;;
5823;SDS011;2938;52.254;12.988;2023-05-07T03:32:39;21.35;;;15.75;;
5823;SDS011;2938;52.254;12.988;2023-05-07T03:35:05;21.80;;;14.73;;
5823;SDS011;2938;52.254;12.988;2023-05-07T03:37:30;28.15;;;15.27;;
5823;SDS011;2938;52.254;12.988;2023-05-07T03:39:58;19.15;;;14.57;;
5823;SDS011;2938;52.254;12.988;2023-05-07T03:42:24;18.55;;;14.82;;
5823;SDS011;2938;52.254;12.988;2023-05-07T03:44:49;18.75;;;14.38;;
5823;SDS011;2938;52.254;12.988;2023-05-07T03:47:14;22.38;;;15.43;;
5823;SDS011;2938;52.254;12.988;2023-05-07T03:49:40;25.25;;;15.90;;
5823;SDS011;2938;52.254;12.988;2023-05-07T03:52:05;27.95;;;15.85;;
5823;SDS011;2938;52.254;12.988;2023-05-07T03:54:36;19.17;;;14.80;;
5823;SDS011;2938;52.254;12.988;2023-05-07T03:57:02;21.52;;;14.95;;
5823;SDS011;2938;52.254;12.988;2023-05-07T03:59:27;24.10;;;15.43;;
5823;SDS011;2938;52.254;12.988;2023-05-07T04:01:53;18.77;;;14.63;;
5823;SDS011;2938;52.254;12.988;2023-05-07T04:04:18;21.58;;;14.93;;
5823;SDS011;2938;52.254;12.988;2023-05-07T04:06:43;18.38;;;14.50;;
5823;SDS011;2938;52.254;12.988;2023-05-07T04:09:09;22.52;;;16.15;;
5823;SDS011;2938;52.254;12.988;2023-05-07T04:11:35;22.70;;;15.88;;
5823;SDS011;2938;52.254;12.988;2023-05-07T04:14:01;16.92;;;14.40;;
5823;SDS011;2938;52.254;12.988;2023-05-07T04:16:26;20.50;;;13.98;;
5823;SDS011;2938;52.254;12.988;2023-05-07T04:18:51;18.38;;;14.25;;
5823;SDS011;2938;52.254;12.988;2023-05-07T04:21:18;16.65;;;13.88;;
5823;SDS011;2938;52.254;12.988;2023-05-07T04:23:44;21.13;;;13.05;;
5823;SDS011;2938;52.254;12.988;2023-05-07T04:26:10;19.00;;;12.98;;
5823;SDS011;2938;52.254;12.988;2023-05-07T04:28:36;18.83;;;13.05;;
5823;SDS011;2938;52.254;12.988;2023-05-07T04:31:01;16.63;;;13.38;;
5823;SDS011;2938;52.254;12.988;2023-05-07T04:33:27;21.05;;;13.27;;
5823;SDS011;2938;52.254;12.988;2023-05-07T04:35:54;20.67;;;14.48;;
5823;SDS011;2938;52.254;12.988;2023-05-07T04:38:20;19.23;;;14.45;;
5823;SDS011;2938;52.254;12.988;2023-05-07T04:40:45;19.52;;;15.88;;
5823;SDS011;2938;52.254;12.988;2023-05-07T04:43:13;17.52;;;13.40;;
5823;SDS011;2938;52.254;12.988;2023-05-07T04:45:39;20.40;;;14.38;;
5823;SDS011;2938;52.254;12.988;2023-05-07T04:48:06;20.00;;;15.85;;
5823;SDS011;2938;52.254;12.988;2023-05-07T04:50:32;18.25;;;13.30;;
5823;SDS011;2938;52.254;12.988;2023-05-07T04:52:57;22.15;;;15.10;;
5823;SDS011;2938;52.254;12.988;2023-05-07T04:55:22;20.40;;;15.70;;
5823;SDS011;2938;52.254;12.988;2023-05-07T04:57:48;22.77;;;16.48;;
5823;SDS011;2938;52.254;12.988;2023-05-07T05:00:13;24.92;;;15.07;;
5823;SDS011;2938;52.254;12.988;2023-05-07T05:02:39;21.45;;;14.80;;
5823;SDS011;2938;52.254;12.988;2023-05-07T05:05:06;21.83;;;14.77;;
5823;SDS011;2938;52.254;12.988;2023-05-07T05:07:37;20.08;;;15.05;;
5823;SDS011;2938;52.254;12.988;2023-05-07T05:10:02;21.98;;;15.82;;
5823;SDS011;2938;52.254;12.988;2023-05-07T05:12:28;22.20;;;16.20;;
5823;SDS011;2938;52.254;12.988;2023-05-07T05:14:54;16.90;;;14.15;;
5823;SDS011;2938;52.254;12.988;2023-05-07T05:17:19;21.02;;;15.70;;
5823;SDS011;2938;52.254;12.988;2023-05-07T05:19:44;20.50;;;14.13;;
5823;SDS011;2938;52.254;12.988;2023-05-07T05:22:10;18.00;;;14.38;;
5823;SDS011;2938;52.254;12.988;2023-05-07T05:24:47;18.23;;;15.27;;
5823;SDS011;2938;52.254;12.988;2023-05-07T05:27:16;20.83;;;16.17;;
5823;SDS011;2938;52.254;12.988;2023-05-07T05:29:41;20.27;;;16.50;;
5823;SDS011;2938;52.254;12.988;2023-05-07T05:32:10;18.77;;;15.60;;
5823;SDS011;2938;52.254;12.988;2023-05-07T05:34:38;21.10;;;15.27;;
5823;SDS011;2938;52.254;12.988;2023-05-07T05:37:03;23.13;;;17.42;;
5823;SDS011;2938;52.254;12.988;2023-05-07T05:39:29;17.15;;;14.30;;
5823;SDS011;2938;52.254;12.988;2023-05-07T05:41:54;21.95;;;14.93;;
5823;SDS011;2938;52.254;12.988;2023-05-07T05:44:20;17.85;;;14.25;;
5823;SDS011;2938;52.254;12.988;2023-05-07T05:46:45;17.77;;;14.95;;
5823;SDS011;2938;52.254;12.988;2023-05-07T05:49:10;17.05;;;14.60;;
5823;SDS011;2938;52.254;12.988;2023-05-07T05:51:39;16.48;;;14.68;;
5823;SDS011;2938;52.254;12.988;2023-05-07T05:54:04;17.77;;;14.48;;
5823;SDS011;2938;52.254;12.988;2023-05-07T05:56:30;18.55;;;14.85;;
5823;SDS011;2938;52.254;12.988;2023-05-07T05:58:55;22.88;;;15.20;;
5823;SDS011;2938;52.254;12.988;2023-05-07T06:01:20;22.08;;;16.48;;
5823;SDS011;2938;52.254;12.988;2023-05-07T06:03:46;23.08;;;15.57;;
5823;SDS011;2938;52.254;12.988;2023-05-07T06:06:11;18.58;;;14.00;;
5823;SDS011;2938;52.254;12.988;2023-05-07T06:08:36;16.88;;;14.63;;
5823;SDS011;2938;52.254;12.988;2023-05-07T06:11:02;21.52;;;16.10;;
5823;SDS011;2938;52.254;12.988;2023-05-07T06:13:28;19.17;;;14.70;;
5823;SDS011;2938;52.254;12.988;2023-05-07T06:15:53;20.60;;;15.00;;
5823;SDS011;2938;52.254;12.988;2023-05-07T06:18:18;17.23;;;14.27;;
5823;SDS011;2938;52.254;12.988;2023-05-07T06:20:46;32.33;;;18.60;;
5823;SDS011;2938;52.254;12.988;2023-05-07T06:23:11;20.48;;;16.17;;
5823;SDS011;2938;52.254;12.988;2023-05-07T06:25:37;24.52;;;16.80;;
5823;SDS011;2938;52.254;12.988;2023-05-07T06:28:05;19.15;;;15.05;;
5823;SDS011;2938;52.254;12.988;2023-05-07T06:30:31;18.75;;;15.77;;
5823;SDS011;2938;52.254;12.988;2023-05-07T06:32:59;18.95;;;15.18;;
5823;SDS011;2938;52.254;12.988;2023-05-07T06:35:27;17.85;;;14.45;;
5823;SDS011;2938;52.254;12.988;2023-05-07T06:37:55;17.05;;;13.90;;
5823;SDS011;2938;52.254;12.988;2023-05-07T06:40:21;19.98;;;13.32;;
5823;SDS011;2938;52.254;12.988;2023-05-07T06:42:46;20.55;;;14.82;;
5823;SDS011;2938;52.254;12.988;2023-05-07T06:45:11;23.13;;;15.10;;
5823;SDS011;2938;52.254;12.988;2023-05-07T06:47:37;17.60;;;13.85;;
5823;SDS011;2938;52.254;12.988;2023-05-07T06:50:13;18.60;;;13.20;;
5823;SDS011;2938;52.254;12.988;2023-05-07T06:52:41;17.65;;;13.57;;
5823;SDS011;2938;52.254;12.988;2023-05-07T06:55:15;16.40;;;13.43;;
5823;SDS011;2938;52.254;12.988;2023-05-07T06:58:03;16.85;;;13.20;;
5823;SDS011;2938;52.254;12.988;2023-05-07T07:00:29;18.75;;;11.73;;
5823;SDS011;2938;52.254;12.988;2023-05-07T07:02:55;13.57;;;11.93;;
5823;SDS011;2938;52.254;12.988;2023-05-07T07:05:21;17.00;;;12.27;;
5823;SDS011;2938;52.254;12.988;2023-05-07T07:07:49;13.15;;;11.25;;
5823;SDS011;2938;52.254;12.988;2023-05-07T07:10:18;11.93;;;9.68;;
5823;SDS011;2938;52.254;12.988;2023-05-07T07:12:44;12.73;;;10.98;;
5823;SDS011;2938;52.254;12.988;2023-05-07T07:15:10;16.48;;;11.70;;
5823;SDS011;2938;52.254;12.988;2023-05-07T07:17:37;13.38;;;10.85;;
5823;SDS011;2938;52.254;12.988;2023-05-07T07:20:03;17.15;;;12.00;;
5823;SDS011;2938;52.254;12.988;2023-05-07T07:22:28;14.95;;;11.27;;
5823;SDS011;2938;52.254;12.988;2023-05-07T07:24:54;12.88;;;11.10;;
5823;SDS011;2938;52.254;12.988;2023-05-07T07:27:22;15.30;;;10.98;;
5823;SDS011;2938;52.254;12.988;2023-05-07T07:29:50;17.25;;;10.90;;
5823;SDS011;2938;52.254;12.988;2023-05-07T07:32:18;13.95;;;12.18;;
5823;SDS011;2938;52.254;12.988;2023-05-07T07:34:50;12.88;;;11.10;;
5823;SDS011;2938;52.254;12.988;2023-05-07T07:37:15;16.40;;;10.95;;
5823;SDS011;2938;52.254;12.988;2023-05-07T07:39:41;16.52;;;10.27;;
5823;SDS011;2938;52.254;12.988;2023-05-07T07:42:06;11.60;;;10.30;;
5823;SDS011;2938;52.254;12.988;2023-05-07T07:44:32;13.77;;;9.68;;
5823;SDS011;2938;52.254;12.988;2023-05-07T07:46:57;11.15;;;9.70;;
5823;SDS011;2938;52.254;12.988;2023-05-07T07:49:26;8.70;;;7.90;;
5823;SDS011;2938;52.254;12.988;2023-05-07T07:51:54;13.00;;;9.25;;
5823;SDS011;2938;52.254;12.988;2023-05-07T07:54:21;12.60;;;8.52;;
5823;SDS011;2938;52.254;12.988;2023-05-07T07:56:46;10.95;;;7.80;;
5823;SDS011;2938;52.254;12.988;2023-05-07T07:59:11;11.55;;;9.00;;
5823;SDS011;2938;52.254;12.988;2023-05-07T08:01:38;9.68;;;7.45;;
5823;SDS011;2938;52.254;12.988;2023-05-07T08:04:04;10.82;;;8.07;;
5823;SDS011;2938;52.254;12.988;2023-05-07T08:06:30;9.07;;;7.60;;
5823;SDS011;2938;52.254;12.988;2023-05-07T08:08:55;16.13;;;9.25;;
5823;SDS011;2938;52.254;12.988;2023-05-07T08:11:21;12.52;;;7.68;;
5823;SDS011;2938;52.254;12.988;2023-05-07T08:13:46;10.65;;;7.47;;
5823;SDS011;2938;52.254;12.988;2023-05-07T08:16:11;12.07;;;8.10;;
5823;SDS011;2938;52.254;12.988;2023-05-07T08:18:37;14.30;;;9.00;;
5823;SDS011;2938;52.254;12.988;2023-05-07T08:21:02;13.77;;;8.35;;
5823;SDS011;2938;52.254;12.988;2023-05-07T08:23:27;10.40;;;7.43;;
5823;SDS011;2938;52.254;12.988;2023-05-07T08:25:53;9.50;;;7.85;;
5823;SDS011;2938;52.254;12.988;2023-05-07T08:28:21;9.80;;;6.82;;
5823;SDS011;2938;52.254;12.988;2023-05-07T08:30:50;12.45;;;7.35;;
5823;SDS011;2938;52.254;12.988;2023-05-07T08:33:25;8.13;;;7.00;;
5823;SDS011;2938;52.254;12.988;2023-05-07T08:35:50;8.00;;;6.85;;
5823;SDS011;2938;52.254;12.988;2023-05-07T08:38:19;8.55;;;6.72;;
5823;SDS011;2938;52.254;12.988;2023-05-07T08:40:44;6.78;;;6.10;;
5823;SDS011;2938;52.254;12.988;2023-05-07T08:43:13;7.95;;;6.07;;
5823;SDS011;2938;52.254;12.988;2023-05-07T08:45:40;8.02;;;6.93;;
5823;SDS011;2938;52.254;12.988;2023-05-07T08:48:08;6.88;;;6.22;;
5823;SDS011;2938;52.254;12.988;2023-05-07T08:50:35;7.53;;;5.97;;
5823;SDS011;2938;52.254;12.988;2023-05-07T08:53:02;7.97;;;6.47;;
5823;SDS011;2938;52.254;12.988;2023-05-07T08:55:31;14.18;;;7.25;;
5823;SDS011;2938;52.254;12.988;2023-05-07T08:57:58;8.48;;;6.72;;
5823;SDS011;2938;52.254;12.988;2023-05-07T09:00:26;7.82;;;5.53;;
5823;SDS011;2938;52.254;12.988;2023-05-07T09:02:55;5.95;;;5.35;;
5823;SDS011;2938;52.254;12.988;2023-05-07T09:05:20;6.57;;;5.97;;
5823;SDS011;2938;52.254;12.988;2023-05-07T09:07:46;8.15;;;6.50;;
5823;SDS011;2938;52.254;12.988;2023-05-07T09:10:31;7.10;;;6.40;;
5823;SDS011;2938;52.254;12.988;2023-05-07T09:13:02;8.70;;;7.57;;
5823;SDS011;2938;52.254;12.988;2023-05-07T09:15:35;8.25;;;7.38;;
5823;SDS011;2938;52.254;12.988;2023-05-07T09:18:00;8.48;;;7.47;;
5823;SDS011;2938;52.254;12.988;2023-05-07T09:20:26;11.25;;;7.45;;
5823;SDS011;2938;52.254;12.988;2023-05-07T09:23:10;7.80;;;6.75;;
5823;SDS011;2938;52.254;12.988;2023-05-07T09:25:35;9.82;;;8.85;;
5823;SDS011;2938;52.254;12.988;2023-05-07T09:28:02;10.27;;;7.50;;
5823;SDS011;2938;52.254;12.988;2023-05-07T09:30:29;10.65;;;7.50;;
5823;SDS011;2938;52.254;12.988;2023-05-07T09:32:55;15.65;;;8.63;;
5823;SDS011;2938;52.254;12.988;2023-05-07T09:35:21;9.35;;;7.63;;
5823;SDS011;2938;52.254;12.988;2023-05-07T09:37:52;7.93;;;7.22;;
5823;SDS011;2938;52.254;12.988;2023-05-07T09:40:30;8.13;;;7.10;;
5823;SDS011;2938;52.254;12.988;2023-05-07T09:43:09;10.95;;;7.60;;
5823;SDS011;2938;52.254;12.988;2023-05-07T09:45:41;12.05;;;7.38;;
5823;SDS011;2938;52.254;12.988;2023-05-07T09:48:25;8.15;;;6.85;;
5823;SDS011;2938;52.254;12.988;2023-05-07T09:50:51;8.40;;;7.25;;
5823;SDS011;2938;52.254;12.988;2023-05-07T09:53:17;7.75;;;6.95;;
5823;SDS011;2938;52.254;12.988;2023-05-07T09:55:45;10.32;;;7.18;;
5823;SDS011;2938;52.254;12.988;2023-05-07T09:58:11;7.50;;;6.45;;
5823;SDS011;2938;52.254;12.988;2023-05-07T10:00:48;8.93;;;6.75;;
5823;SDS011;2938;52.254;12.988;2023-05-07T10:03:14;8.30;;;6.97;;
5823;SDS011;2938;52.254;12.988;2023-05-07T10:05:42;6.43;;;5.82;;
5823;SDS011;2938;52.254;12.988;2023-05-07T10:08:12;10.15;;;8.98;;
5823;SDS011;2938;52.254;12.988;2023-05-07T10:10:37;7.35;;;6.72;;
5823;SDS011;2938;52.254;12.988;2023-05-07T10:13:06;7.63;;;6.13;;
5823;SDS011;2938;52.254;12.988;2023-05-07T10:15:48;7.82;;;6.75;;
5823;SDS011;2938;52.254;12.988;2023-05-07T10:18:14;7.82;;;6.82;;
5823;SDS011;2938;52.254;12.988;2023-05-07T10:20:49;6.97;;;6.28;;
5823;SDS011;2938;52.254;12.988;2023-05-07T10:23:28;8.75;;;6.20;;
5823;SDS011;2938;52.254;12.988;2023-05-07T10:26:02;6.35;;;5.30;;
5823;SDS011;2938;52.254;12.988;2023-05-07T10:28:38;7.72;;;5.68;;
5823;SDS011;2938;52.254;12.988;2023-05-07T10:31:11;6.78;;;6.05;;
5823;SDS011;2938;52.254;12.988;2023-05-07T10:33:43;8.75;;;6.53;;
5823;SDS011;2938;52.254;12.988;2023-05-07T10:36:10;6.90;;;6.22;;
5823;SDS011;2938;52.254;12.988;2023-05-07T10:38:35;8.32;;;6.55;;
5823;SDS011;2938;52.254;12.988;2023-05-07T10:41:01;8.63;;;6.30;;
5823;SDS011;2938;52.254;12.988;2023-05-07T10:43:42;6.57;;;5.93;;
5823;SDS011;2938;52.254;12.988;2023-05-07T10:46:28;6.50;;;5.90;;
5823;SDS011;2938;52.254;12.988;2023-05-07T10:51:44;9.80;;;5.35;;
5823;SDS011;2938;52.254;12.988;2023-05-07T10:56:41;8.38;;;5.97;;
5823;SDS011;2938;52.254;12.988;2023-05-07T11:01:53;10.75;;;5.93;;
5823;SDS011;2938;52.254;12.988;2023-05-07T11:04:27;8.73;;;5.53;;
5823;SDS011;2938;52.254;12.988;2023-05-07T11:12:18;6.72;;;6.00;;
5823;SDS011;2938;52.254;12.988;2023-05-07T11:15:06;11.95;;;5.68;;
5823;SDS011;2938;52.254;12.988;2023-05-07T11:17:32;8.05;;;6.68;;
5823;SDS011;2938;52.254;12.988;2023-05-07T11:20:20;8.77;;;6.68;;
5823;SDS011;2938;52.254;12.988;2023-05-07T11:22:46;7.68;;;6.50;;
5823;SDS011;2938;52.254;12.988;2023-05-07T11:25:14;12.25;;;6.50;;
5823;SDS011;2938;52.254;12.988;2023-05-07T11:27:42;8.02;;;5.03;;
5823;SDS011;2938;52.254;12.988;2023-05-07T11:30:17;9.25;;;6.25;;
5823;SDS011;2938;52.254;12.988;2023-05-07T11:32:48;6.72;;;4.95;;
5823;SDS011;2938;52.254;12.988;2023-05-07T11:35:13;6.35;;;5.13;;
5823;SDS011;2938;52.254;12.988;2023-05-07T11:37:49;5.28;;;4.82;;
5823;SDS011;2938;52.254;12.988;2023-05-07T11:40:22;5.72;;;4.15;;
5823;SDS011;2938;52.254;12.988;2023-05-07T11:42:50;8.40;;;4.45;;
5823;SDS011;2938;52.254;12.988;2023-05-07T11:45:24;6.03;;;5.07;;
5823;SDS011;2938;52.254;12.988;2023-05-07T11:47:50;5.47;;;4.95;;
5823;SDS011;2938;52.254;12.988;2023-05-07T11:50:16;5.28;;;4.18;;
5823;SDS011;2938;52.254;12.988;2023-05-07T11:52:49;5.53;;;4.95;;
5823;SDS011;2938;52.254;12.988;2023-05-07T11:55:18;4.85;;;4.05;;
5823;SDS011;2938;52.254;12.988;2023-05-07T11:57:44;6.18;;;4.63;;
5823;SDS011;2938;52.254;12.988;2023-05-07T12:00:15;6.90;;;4.20;;
5823;SDS011;2938;52.254;12.988;2023-05-07T12:02:41;4.43;;;3.97;;
5823;SDS011;2938;52.254;12.988;2023-05-07T12:05:07;3.55;;;3.25;;
5823;SDS011;2938;52.254;12.988;2023-05-07T12:07:35;3.42;;;3.13;;
5823;SDS011;2938;52.254;12.988;2023-05-07T12:10:04;6.20;;;3.85;;
5823;SDS011;2938;52.254;12.988;2023-05-07T12:12:30;4.85;;;4.38;;
5823;SDS011;2938;52.254;12.988;2023-05-07T12:14:58;7.53;;;3.72;;
5823;SDS011;2938;52.254;12.988;2023-05-07T12:17:23;4.45;;;3.78;;
5823;SDS011;2938;52.254;12.988;2023-05-07T12:19:49;5.95;;;3.22;;
5823;SDS011;2938;52.254;12.988;2023-05-07T12:22:14;6.72;;;3.78;;
5823;SDS011;2938;52.254;12.988;2023-05-07T12:24:46;4.57;;;4.18;;
5823;SDS011;2938;52.254;12.988;2023-05-07T12:27:25;3.67;;;3.30;;
5823;SDS011;2938;52.254;12.988;2023-05-07T12:29:53;5.03;;;3.28;;
5823;SDS011;2938;52.254;12.988;2023-05-07T12:32:22;3.45;;;3.15;;
5823;SDS011;2938;52.254;12.988;2023-05-07T12:34:51;3.28;;;2.88;;
5823;SDS011;2938;52.254;12.988;2023-05-07T12:37:16;6.30;;;3.33;;
5823;SDS011;2938;52.254;12.988;2023-05-07T12:40:07;5.82;;;3.42;;
5823;SDS011;2938;52.254;12.988;2023-05-07T12:42:37;3.88;;;2.85;;
5823;SDS011;2938;52.254;12.988;2023-05-07T12:45:13;3.58;;;2.80;;
5823;SDS011;2938;52.254;12.988;2023-05-07T12:47:47;2.95;;;2.60;;
5823;SDS011;2938;52.254;12.988;2023-05-07T12:50:13;5.55;;;2.80;;
5823;SDS011;2938;52.254;12.988;2023-05-07T12:55:44;2.65;;;2.22;;
5823;SDS011;2938;52.254;12.988;2023-05-07T12:58:20;3.55;;;2.92;;
5823;SDS011;2938;52.254;12.988;2023-05-07T13:01:01;2.30;;;2.10;;
5823;SDS011;2938;52.254;12.988;2023-05-07T13:03:40;3.30;;;2.42;;
5823;SDS011;2938;52.254;12.988;2023-05-07T13:06:13;2.78;;;2.58;;
5823;SDS011;2938;52.254;12.988;2023-05-07T13:17:33;3.22;;;2.92;;
5823;SDS011;2938;52.254;12.988;2023-05-07T13:20:02;2.97;;;2.70;;
5823;SDS011;2938;52.254;12.988;2023-05-07T13:22:33;3.15;;;2.70;;
5823;SDS011;2938;52.254;12.988;2023-05-07T13:25:00;4.72;;;2.40;;
5823;SDS011;2938;52.254;12.988;2023-05-07T13:27:28;2.63;;;2.40;;
5823;SDS011;2938;52.254;12.988;2023-05-07T13:30:06;3.28;;;2.58;;
5823;SDS011;2938;52.254;12.988;2023-05-07T13:35:37;5.07;;;2.95;;
5823;SDS011;2938;52.254;12.988;2023-05-07T13:38:02;2.50;;;2.30;;
5823;SDS011;2938;52.254;12.988;2023-05-07T13:40:28;3.83;;;2.80;;
5823;SDS011;2938;52.254;12.988;2023-05-07T13:42:59;5.13;;;3.53;;
5823;SDS011;2938;52.254;12.988;2023-05-07T13:45:28;4.45;;;3.25;;
5823;SDS011;2938;52.254;12.988;2023-05-07T13:48:00;4.20;;;2.45;;
5823;SDS011;2938;52.254;12.988;2023-05-07T13:50:26;4.60;;;2.85;;
5823;SDS011;2938;52.254;12.988;2023-05-07T13:53:09;3.05;;;2.15;;
5823;SDS011;2938;52.254;12.988;2023-05-07T13:55:43;2.22;;;2.03;;
5823;SDS011;2938;52.254;12.988;2023-05-07T13:58:32;4.55;;;2.58;;
5823;SDS011;2938;52.254;12.988;2023-05-07T14:01:09;2.35;;;2.15;;
5823;SDS011;2938;52.254;12.988;2023-05-07T14:03:42;14.98;;;2.50;;
5823;SDS011;2938;52.254;12.988;2023-05-07T14:06:07;2.92;;;2.20;;
5823;SDS011;2938;52.254;12.988;2023-05-07T14:08:38;2.38;;;2.17;;
5823;SDS011;2938;52.254;12.988;2023-05-07T14:11:11;3.35;;;3.05;;
5823;SDS011;2938;52.254;12.988;2023-05-07T14:13:50;3.83;;;2.35;;
5823;SDS011;2938;52.254;12.988;2023-05-07T14:16:24;5.95;;;2.92;;
5823;SDS011;2938;52.254;12.988;2023-05-07T14:18:49;3.17;;;2.88;;
5823;SDS011;2938;52.254;12.988;2023-05-07T14:21:15;2.80;;;2.17;;
5823;SDS011;2938;52.254;12.988;2023-05-07T14:23:40;7.10;;;2.97;;
5823;SDS011;2938;52.254;12.988;2023-05-07T14:26:25;3.03;;;2.22;;
5823;SDS011;2938;52.254;12.988;2023-05-07T14:29:13;7.22;;;2.20;;
5823;SDS011;2938;52.254;12.988;2023-05-07T14:31:40;2.50;;;2.30;;
5823;SDS011;2938;52.254;12.988;2023-05-07T14:34:15;2.63;;;2.20;;
5823;SDS011;2938;52.254;12.988;2023-05-07T14:36:41;2.08;;;1.75;;
5823;SDS011;2938;52.254;12.988;2023-05-07T14:39:17;3.15;;;2.80;;
5823;SDS011;2938;52.254;12.988;2023-05-07T14:41:52;11.60;;;3.17;;
5823;SDS011;2938;52.254;12.988;2023-05-07T14:46:56;3.58;;;2.75;;
5823;SDS011;2938;52.254;12.988;2023-05-07T14:49:32;7.55;;;2.55;;
5823;SDS011;2938;52.254;12.988;2023-05-07T14:52:06;1.77;;;1.67;;
5823;SDS011;2938;52.254;12.988;2023-05-07T14:54:57;4.00;;;2.47;;
5823;SDS011;2938;52.254;12.988;2023-05-07T14:57:30;4.10;;;2.38;;
5823;SDS011;2938;52.254;12.988;2023-05-07T15:00:04;2.58;;;2.38;;
5823;SDS011;2938;52.254;12.988;2023-05-07T15:06:08;7.80;;;3.08;;
5823;SDS011;2938;52.254;12.988;2023-05-07T15:08:36;3.47;;;2.25;;
5823;SDS011;2938;52.254;12.988;2023-05-07T15:11:47;3.85;;;3.17;;
5823;SDS011;2938;52.254;12.988;2023-05-07T15:19:52;6.95;;;2.67;;
5823;SDS011;2938;52.254;12.988;2023-05-07T15:22:44;4.25;;;3.05;;
5823;SDS011;2938;52.254;12.988;2023-05-07T15:25:37;5.75;;;2.47;;
5823;SDS011;2938;52.254;12.988;2023-05-07T15:28:22;5.00;;;2.55;;
5823;SDS011;2938;52.254;12.988;2023-05-07T15:30:52;6.28;;;3.17;;
5823;SDS011;2938;52.254;12.988;2023-05-07T15:33:23;2.55;;;2.35;;